Graig Rotterdam — 2GAQ4 — position and weather

sailwx.info

Track history (hours):
 
Tides and Currents Weather Stations Pressure Air Temp Water Temp Dewpoint Dewpoint Depression Visibility Wind Speed Wind Dir Waves Ship Positions

Graig Rotterdam

Last reported at 2018-May-19 14:27 UTC. Time now 2018-May-22 17:57 UTC.
Position N 35°60' W 005°13'.

Length 180 m; draft 10.4 m.

Type: Cargo ship. MMSI: 235095815.

Date/timePositionNaut miles runAvg speedWind from/ knotsBaromVisibWave heightAir tempDewpointWater temp
2018-May-19 14:27N 35°60' W 005°13'612.5
2018-May-19 14:00N 35°59' W 005°20'612.2
2018-May-19 13:28N 35°57' W 005°28'244 9.6
2018-May-18 12:11N 37°57' W 009°53'210.9
2018-May-18 12:00N 37°59' W 009°53'511.2
2018-May-18 11:31N 38°04' W 009°55'611.5
2018-May-18 10:58N 38°10' W 009°57'511.5
2018-May-18 10:31N 38°16' W 009°59'711.6
2018-May-18 09:57N 38°22' W 010°01'511.8
2018-May-18 09:30N 38°27' W 010°02'611.8
2018-May-18 09:00N 38°33' W 010°04'611.4
2018-May-18 08:30N 38°38' W 010°05'611.2
2018-May-18 08:00N 38°44' W 010°06'611.6
2018-May-18 07:31N 38°50' W 010°06'612.0
2018-May-18 07:00N 38°56' W 010°06'612.6
2018-May-18 06:30N 39°02' W 010°06'612.3
2018-May-18 06:00N 39°08' W 010°06'610.8
2018-May-18 05:30N 39°14' W 010°06'611.3
2018-May-18 05:00N 39°19' W 010°06'  
2018-May-15 18:52N 49°16' W 004°48'810.1
2018-May-15 18:05N 49°21' W 004°37'3 9.7
2018-May-15 17:44N 49°22' W 004°33'3 9.3
2018-May-15 17:23N 49°24' W 004°29'4 9.2
2018-May-15 16:59N 49°26' W 004°24'2610.2
2018-May-15 14:24N 49°40' W 003°50'511.7
2018-May-15 14:00N 49°42' W 003°43'612.4
2018-May-15 13:31N 49°46' W 003°35'612.8
2018-May-15 13:00N 49°49' W 003°27'713.2
2018-May-15 12:30N 49°53' W 003°18'713.2
2018-May-15 12:00N 49°56' W 003°09'712.9
2018-May-15 11:29N 49°58' W 002°59'612.3
2018-May-15 10:59N 49°59' W 002°50'611.8
2018-May-15 10:30N 50°01' W 002°41'611.1
2018-May-15 10:00N 50°02' W 002°33'510.2
2018-May-15 09:30N 50°04' W 002°25'5 9.4
2018-May-15 09:00N 50°05' W 002°18'4 8.6
2018-May-15 08:30N 50°06' W 002°12'4 8.0
2018-May-15 08:00N 50°07' W 002°06'4 7.6
2018-May-15 07:31N 50°08' W 001°60'4 7.5
2018-May-15 07:00N 50°08' W 001°54'4 7.8
2018-May-15 06:31N 50°10' W 001°48'4 8.4
2018-May-15 06:00N 50°11' W 001°42'5 9.3
2018-May-15 05:31N 50°12' W 001°35'510.2
2018-May-15 05:00N 50°13' W 001°27'611.3
2018-May-15 04:30N 50°15' W 001°19'612.2
2018-May-15 04:01N 50°17' W 001°10'713.5
2018-May-15 03:30N 50°18' W 000°59'713.9
2018-May-15 03:00N 50°20' W 000°49'713.9
2018-May-15 02:30N 50°22' W 000°39'713.8
2018-May-15 02:00N 50°24' W 000°28'713.4
2018-May-15 01:30N 50°26' W 000°18'712.9
2018-May-15 00:59N 50°28' W 000°08'612.7
2018-May-15 00:30N 50°29' E 000°01'612.3
2018-May-15 00:00N 50°31' E 000°11'611.9
2018-May-14 23:30N 50°32' E 000°20'611.5
2018-May-14 22:59N 50°34' E 000°29'510.9
2018-May-14 22:30N 50°35' E 000°37'510.6
2018-May-14 22:00N 50°38' E 000°44'610.6
2018-May-14 21:28N 50°42' E 000°51'2111.3
2018-May-14 19:39N 50°54' E 001°17'313.8
2018-May-14 19:23N 50°57' E 001°20'614.6
2018-May-14 19:00N 51°01' E 001°27'715.1
2018-May-14 18:30N 51°06' E 001°35'714.6
2018-May-14 18:00N 51°11' E 001°43'713.7
2018-May-14 17:30N 51°17' E 001°50'613.0
2018-May-14 17:00N 51°22' E 001°55'712.0
2018-May-14 16:27N 51°28' E 002°02'711.1
2018-May-14 15:51N 51°33' E 002°08'410.6
2018-May-14 15:29N 51°36' E 002°12'510.4
2018-May-14 15:00N 51°40' E 002°17'510.0
2018-May-14 14:30N 51°44' E 002°22'5 9.7
2018-May-14 14:00N 51°48' E 002°27'7 9.5
2018-May-14 13:14N 51°54' E 002°34'2 9.8
2018-May-14 13:00N 51°56' E 002°35'5 9.9
2018-May-14 12:27N 52°01' E 002°37'2711.1
2018-May-14 10:00N 52°26' E 002°53'612.6
2018-May-14 09:30N 52°32' E 002°58'1612.9
2018-May-14 08:15N 52°47' E 003°09'33111.3
2018-May-13 02:55N 57°24' E 008°24'511.5
2018-May-13 02:30N 57°27' E 008°32'611.5
2018-May-13 01:59N 57°30' E 008°41'611.6
2018-May-13 01:30N 57°33' E 008°49'611.5
2018-May-13 01:00N 57°37' E 008°58'611.5
2018-May-13 00:29N 57°40' E 009°07'611.4
2018-May-12 23:59N 57°43' E 009°16'611.5
2018-May-12 23:30N 57°45' E 009°26'611.5
2018-May-12 23:00N 57°46' E 009°36'611.5
2018-May-12 22:30N 57°47' E 009°47'611.7
2018-May-12 22:00N 57°47' E 009°58'611.7
2018-May-12 21:30N 57°48' E 010°09'611.5
2018-May-12 21:00N 57°49' E 010°19'611.5
2018-May-12 20:30N 57°49' E 010°30'511.0
2018-May-12 20:00N 57°49' E 010°40'5 9.9
2018-May-12 19:29N 57°46' E 010°49'510.5
2018-May-12 19:00N 57°42' E 010°44'1 1.9
2018-May-12 18:28N 57°41' E 010°44'0 0.0
2018-May-12 17:58N 57°41' E 010°44'0 0.0
2018-May-12 17:28N 57°41' E 010°44'0 0.0
2018-May-12 16:58N 57°41' E 010°44'0 0.0
2018-May-12 16:28N 57°41' E 010°44'0 0.0
2018-May-12 15:55N 57°41' E 010°44'0 0.0
2018-May-12 15:25N 57°41' E 010°44'0 0.0
2018-May-12 14:58N 57°41' E 010°44'0 0.0
2018-May-12 14:28N 57°41' E 010°44'0 0.0
2018-May-12 13:55N 57°41' E 010°44'0 0.0
2018-May-12 13:28N 57°41' E 010°44'0 0.0
2018-May-12 12:58N 57°41' E 010°44'0 0.0
2018-May-12 12:28N 57°41' E 010°44'0 0.0
2018-May-12 11:58N 57°41' E 010°44'0 0.0
2018-May-12 11:25N 57°41' E 010°44'0 0.0
2018-May-12 10:58N 57°41' E 010°44'0 0.0
2018-May-12 10:28N 57°41' E 010°44'0 0.0
2018-May-12 09:58N 57°41' E 010°44'0 0.0
2018-May-12 09:28N 57°41' E 010°44'0 0.0
2018-May-12 08:55N 57°41' E 010°44'0 0.0
2018-May-12 08:28N 57°41' E 010°44'0 0.3
2018-May-12 08:00N 57°41' E 010°44'2 4.8
2018-May-12 07:30N 57°41' E 010°48'510.7
2018-May-12 07:00N 57°39' E 010°58'510.9
2018-May-12 06:30N 57°37' E 011°07'611.6
2018-May-12 06:00N 57°33' E 011°15'511.2
2018-May-12 05:30N 57°30' E 011°23'610.4
2018-May-12 04:55N 57°24' E 011°29'510.9
2018-May-12 04:29N 57°20' E 011°31'511.0
2018-May-12 04:00N 57°15' E 011°35'510.7
2018-May-12 03:31N 57°10' E 011°39'510.6
2018-May-12 03:00N 57°05' E 011°42'510.6
2018-May-12 02:30N 56°60' E 011°45'510.7
2018-May-12 02:00N 56°55' E 011°48'510.9
2018-May-12 01:30N 56°50' E 011°51'511.0
2018-May-12 01:01N 56°45' E 011°55'5 9.1
2018-May-12 00:30N 56°41' E 011°50'611.0
2018-May-12 00:00N 56°36' E 011°45'510.9
2018-May-11 23:30N 56°32' E 011°40'610.8
2018-May-11 22:59N 56°27' E 011°34'1111.1
2018-May-11 21:59N 56°17' E 011°24'5810.2
2018-May-11 16:19N 55°21' E 011°02'310.8
2018-May-11 16:00N 55°18' E 011°03'611.5
2018-May-11 15:31N 55°12' E 011°06'611.5
2018-May-11 15:00N 55°07' E 010°59'612.0
2018-May-11 14:30N 55°01' E 010°59'510.6
2018-May-11 14:00N 54°57' E 010°54'510.9
2018-May-11 13:30N 54°52' E 010°50'510.8
2018-May-11 13:01N 54°47' E 010°49'511.0
2018-May-11 12:31N 54°41' E 010°47'5 9.5
2018-May-11 12:00N 54°39' E 010°53'510.5
2018-May-11 11:30N 54°36' E 011°01'510.5
2018-May-11 11:00N 54°36' E 011°10'510.8
2018-May-11 10:30N 54°34' E 011°19'510.8
2018-May-11 10:00N 54°31' E 011°27'610.8
2018-May-11 09:27N 54°29' E 011°37'510.9
2018-May-11 08:59N 54°27' E 011°45'610.6
2018-May-11 08:23N 54°27' E 011°56'410.4
2018-May-11 08:00N 54°26' E 012°03'510.1
2018-May-11 07:30N 54°27' E 012°11'69 9.7
2018-May-11 00:22N 54°41' E 014°08'511.4
2018-May-10 23:57N 54°39' E 014°16'1511.0
2018-May-10 22:36N 54°39' E 014°42'311.0
2018-May-10 22:20N 54°39' E 014°47'410.9
2018-May-10 22:00N 54°40' E 014°53'711.0
2018-May-10 21:20N 54°41' E 015°05'4 8.7
2018-May-10 20:56N 54°42' E 015°11'0 0.4
2018-May-10 20:04N 54°43' E 015°11'0 2.0
2018-May-10 19:57N 54°43' E 015°11'4 7.7
2018-May-10 19:26N 54°43' E 015°18'9411.3
2018-May-10 11:08N 55°00' E 017°58'311.2
2018-May-10 10:51N 55°00' E 018°03'411.1
2018-May-10 10:30N 54°60' E 018°10'611.3
2018-May-10 10:01N 54°60' E 018°20'611.4
2018-May-10 09:30N 54°60' E 018°30'510.7
2018-May-10 09:00N 54°56' E 018°37'611.8
2018-May-10 08:30N 54°51' E 018°43'611.8
2018-May-10 08:00N 54°47' E 018°50'612.1
2018-May-10 07:30N 54°42' E 018°55'510.1
2018-May-10 07:00N 54°37' E 018°55'611.1
2018-May-10 06:30N 54°32' E 018°49'510.3
2018-May-10 06:00N 54°32' E 018°41'4 8.6
2018-May-10 05:30N 54°32' E 018°33'1 1.1
2018-May-10 05:00N 54°32' E 018°32'0 0.0
2018-May-10 04:30N 54°32' E 018°32'0 0.0
2018-May-10 03:58N 54°32' E 018°32'0 0.0
2018-May-10 03:28N 54°32' E 018°32'0 0.0
2018-May-10 02:58N 54°32' E 018°32'0 0.0
2018-May-10 02:28N 54°32' E 018°32'0 0.0
2018-May-10 01:58N 54°32' E 018°32'0 0.0
2018-May-10 01:28N 54°32' E 018°32'0 0.0
2018-May-10 00:58N 54°32' E 018°32'0 0.0
2018-May-10 00:28N 54°32' E 018°32'0 0.0
2018-May-09 23:58N 54°32' E 018°32'0 0.0
2018-May-09 23:28N 54°32' E 018°32'0 0.0
2018-May-09 22:58N 54°32' E 018°32'0 0.0
2018-May-09 22:28N 54°32' E 018°32'0 0.0
2018-May-09 21:58N 54°32' E 018°32'0 0.0
2018-May-09 21:28N 54°32' E 018°32'0 0.0
2018-May-09 20:58N 54°32' E 018°32'0 0.0
2018-May-09 20:28N 54°32' E 018°32'0 0.0
2018-May-09 19:58N 54°32' E 018°32'0 0.0
2018-May-09 19:28N 54°32' E 018°32'0 0.0
2018-May-09 18:58N 54°32' E 018°32'0 0.0
2018-May-09 18:28N 54°32' E 018°32'0 0.0
2018-May-09 17:58N 54°32' E 018°32'0 0.0
2018-May-09 17:28N 54°32' E 018°32'0 0.0
2018-May-09 16:58N 54°32' E 018°32'0 0.0
2018-May-09 16:28N 54°32' E 018°32'0 0.0
2018-May-09 15:58N 54°32' E 018°32'0 0.0
2018-May-09 15:28N 54°32' E 018°32'0 0.0
2018-May-09 14:58N 54°32' E 018°32'0 0.0
2018-May-09 14:28N 54°32' E 018°32'  
Track history (hours):
 
Tides and Currents Weather Stations Pressure Air Temp Water Temp Dewpoint Dewpoint Depression Visibility Wind Speed Wind Dir Waves Ship Positions

Graig Rotterdam

Last reported at 2018-May-19 14:27 UTC. Time now 2018-May-22 17:57 UTC.
Position N 35°60' W 005°13'.

Length 180 m; draft 10.4 m.

Type: Cargo ship. MMSI: 235095815.

Date/timePositionNaut miles runAvg speedWind from/ knotsBaromVisibWave heightAir tempDewpointWater temp
2018-May-19 14:27N 35°60' W 005°13'612.5
2018-May-19 14:00N 35°59' W 005°20'612.2
2018-May-19 13:28N 35°57' W 005°28'244 9.6
2018-May-18 12:11N 37°57' W 009°53'210.9
2018-May-18 12:00N 37°59' W 009°53'511.2
2018-May-18 11:31N 38°04' W 009°55'611.5
2018-May-18 10:58N 38°10' W 009°57'511.5
2018-May-18 10:31N 38°16' W 009°59'711.6
2018-May-18 09:57N 38°22' W 010°01'511.8
2018-May-18 09:30N 38°27' W 010°02'611.8
2018-May-18 09:00N 38°33' W 010°04'611.4
2018-May-18 08:30N 38°38' W 010°05'611.2
2018-May-18 08:00N 38°44' W 010°06'611.6
2018-May-18 07:31N 38°50' W 010°06'612.0
2018-May-18 07:00N 38°56' W 010°06'612.6
2018-May-18 06:30N 39°02' W 010°06'612.3
2018-May-18 06:00N 39°08' W 010°06'610.8
2018-May-18 05:30N 39°14' W 010°06'611.3
2018-May-18 05:00N 39°19' W 010°06'  
2018-May-15 18:52N 49°16' W 004°48'810.1
2018-May-15 18:05N 49°21' W 004°37'3 9.7
2018-May-15 17:44N 49°22' W 004°33'3 9.3
2018-May-15 17:23N 49°24' W 004°29'4 9.2
2018-May-15 16:59N 49°26' W 004°24'2610.2
2018-May-15 14:24N 49°40' W 003°50'511.7
2018-May-15 14:00N 49°42' W 003°43'612.4
2018-May-15 13:31N 49°46' W 003°35'612.8
2018-May-15 13:00N 49°49' W 003°27'713.2
2018-May-15 12:30N 49°53' W 003°18'713.2
2018-May-15 12:00N 49°56' W 003°09'712.9
2018-May-15 11:29N 49°58' W 002°59'612.3
2018-May-15 10:59N 49°59' W 002°50'611.8
2018-May-15 10:30N 50°01' W 002°41'611.1
2018-May-15 10:00N 50°02' W 002°33'510.2
2018-May-15 09:30N 50°04' W 002°25'5 9.4
2018-May-15 09:00N 50°05' W 002°18'4 8.6
2018-May-15 08:30N 50°06' W 002°12'4 8.0
2018-May-15 08:00N 50°07' W 002°06'4 7.6
2018-May-15 07:31N 50°08' W 001°60'4 7.5
2018-May-15 07:00N 50°08' W 001°54'4 7.8
2018-May-15 06:31N 50°10' W 001°48'4 8.4
2018-May-15 06:00N 50°11' W 001°42'5 9.3
2018-May-15 05:31N 50°12' W 001°35'510.2
2018-May-15 05:00N 50°13' W 001°27'611.3
2018-May-15 04:30N 50°15' W 001°19'612.2
2018-May-15 04:01N 50°17' W 001°10'713.5
2018-May-15 03:30N 50°18' W 000°59'713.9
2018-May-15 03:00N 50°20' W 000°49'713.9
2018-May-15 02:30N 50°22' W 000°39'713.8
2018-May-15 02:00N 50°24' W 000°28'713.4
2018-May-15 01:30N 50°26' W 000°18'712.9
2018-May-15 00:59N 50°28' W 000°08'612.7
2018-May-15 00:30N 50°29' E 000°01'612.3
2018-May-15 00:00N 50°31' E 000°11'611.9
2018-May-14 23:30N 50°32' E 000°20'611.5
2018-May-14 22:59N 50°34' E 000°29'510.9
2018-May-14 22:30N 50°35' E 000°37'510.6
2018-May-14 22:00N 50°38' E 000°44'610.6
2018-May-14 21:28N 50°42' E 000°51'2111.3
2018-May-14 19:39N 50°54' E 001°17'313.8
2018-May-14 19:23N 50°57' E 001°20'614.6
2018-May-14 19:00N 51°01' E 001°27'715.1
2018-May-14 18:30N 51°06' E 001°35'714.6
2018-May-14 18:00N 51°11' E 001°43'713.7
2018-May-14 17:30N 51°17' E 001°50'613.0
2018-May-14 17:00N 51°22' E 001°55'712.0
2018-May-14 16:27N 51°28' E 002°02'711.1
2018-May-14 15:51N 51°33' E 002°08'410.6
2018-May-14 15:29N 51°36' E 002°12'510.4
2018-May-14 15:00N 51°40' E 002°17'510.0
2018-May-14 14:30N 51°44' E 002°22'5 9.7
2018-May-14 14:00N 51°48' E 002°27'7 9.5
2018-May-14 13:14N 51°54' E 002°34'2 9.8
2018-May-14 13:00N 51°56' E 002°35'5 9.9
2018-May-14 12:27N 52°01' E 002°37'2711.1
2018-May-14 10:00N 52°26' E 002°53'612.6
2018-May-14 09:30N 52°32' E 002°58'1612.9
2018-May-14 08:15N 52°47' E 003°09'33111.3
2018-May-13 02:55N 57°24' E 008°24'511.5
2018-May-13 02:30N 57°27' E 008°32'611.5
2018-May-13 01:59N 57°30' E 008°41'611.6
2018-May-13 01:30N 57°33' E 008°49'611.5
2018-May-13 01:00N 57°37' E 008°58'611.5
2018-May-13 00:29N 57°40' E 009°07'611.4
2018-May-12 23:59N 57°43' E 009°16'611.5
2018-May-12 23:30N 57°45' E 009°26'611.5
2018-May-12 23:00N 57°46' E 009°36'611.5
2018-May-12 22:30N 57°47' E 009°47'611.7
2018-May-12 22:00N 57°47' E 009°58'611.7
2018-May-12 21:30N 57°48' E 010°09'611.5
2018-May-12 21:00N 57°49' E 010°19'611.5
2018-May-12 20:30N 57°49' E 010°30'511.0
2018-May-12 20:00N 57°49' E 010°40'5 9.9
2018-May-12 19:29N 57°46' E 010°49'510.5
2018-May-12 19:00N 57°42' E 010°44'1 1.9
2018-May-12 18:28N 57°41' E 010°44'0 0.0
2018-May-12 17:58N 57°41' E 010°44'0 0.0
2018-May-12 17:28N 57°41' E 010°44'0 0.0
2018-May-12 16:58N 57°41' E 010°44'0 0.0
2018-May-12 16:28N 57°41' E 010°44'0 0.0
2018-May-12 15:55N 57°41' E 010°44'0 0.0
2018-May-12 15:25N 57°41' E 010°44'0 0.0
2018-May-12 14:58N 57°41' E 010°44'0 0.0
2018-May-12 14:28N 57°41' E 010°44'0 0.0
2018-May-12 13:55N 57°41' E 010°44'0 0.0
2018-May-12 13:28N 57°41' E 010°44'0 0.0
2018-May-12 12:58N 57°41' E 010°44'0 0.0
2018-May-12 12:28N 57°41' E 010°44'0 0.0
2018-May-12 11:58N 57°41' E 010°44'0 0.0
2018-May-12 11:25N 57°41' E 010°44'0 0.0
2018-May-12 10:58N 57°41' E 010°44'0 0.0
2018-May-12 10:28N 57°41' E 010°44'0 0.0
2018-May-12 09:58N 57°41' E 010°44'0 0.0
2018-May-12 09:28N 57°41' E 010°44'0 0.0
2018-May-12 08:55N 57°41' E 010°44'0 0.0
2018-May-12 08:28N 57°41' E 010°44'0 0.3
2018-May-12 08:00N 57°41' E 010°44'2 4.8
2018-May-12 07:30N 57°41' E 010°48'510.7
2018-May-12 07:00N 57°39' E 010°58'510.9
2018-May-12 06:30N 57°37' E 011°07'611.6
2018-May-12 06:00N 57°33' E 011°15'511.2
2018-May-12 05:30N 57°30' E 011°23'610.4
2018-May-12 04:55N 57°24' E 011°29'510.9
2018-May-12 04:29N 57°20' E 011°31'511.0
2018-May-12 04:00N 57°15' E 011°35'510.7
2018-May-12 03:31N 57°10' E 011°39'510.6
2018-May-12 03:00N 57°05' E 011°42'510.6
2018-May-12 02:30N 56°60' E 011°45'510.7
2018-May-12 02:00N 56°55' E 011°48'510.9
2018-May-12 01:30N 56°50' E 011°51'511.0
2018-May-12 01:01N 56°45' E 011°55'5 9.1
2018-May-12 00:30N 56°41' E 011°50'611.0
2018-May-12 00:00N 56°36' E 011°45'510.9
2018-May-11 23:30N 56°32' E 011°40'610.8
2018-May-11 22:59N 56°27' E 011°34'1111.1
2018-May-11 21:59N 56°17' E 011°24'5810.2
2018-May-11 16:19N 55°21' E 011°02'310.8
2018-May-11 16:00N 55°18' E 011°03'611.5
2018-May-11 15:31N 55°12' E 011°06'611.5
2018-May-11 15:00N 55°07' E 010°59'612.0
2018-May-11 14:30N 55°01' E 010°59'510.6
2018-May-11 14:00N 54°57' E 010°54'510.9
2018-May-11 13:30N 54°52' E 010°50'510.8
2018-May-11 13:01N 54°47' E 010°49'511.0
2018-May-11 12:31N 54°41' E 010°47'5 9.5
2018-May-11 12:00N 54°39' E 010°53'510.5
2018-May-11 11:30N 54°36' E 011°01'510.5
2018-May-11 11:00N 54°36' E 011°10'510.8
2018-May-11 10:30N 54°34' E 011°19'510.8
2018-May-11 10:00N 54°31' E 011°27'610.8
2018-May-11 09:27N 54°29' E 011°37'510.9
2018-May-11 08:59N 54°27' E 011°45'610.6
2018-May-11 08:23N 54°27' E 011°56'410.4
2018-May-11 08:00N 54°26' E 012°03'510.1
2018-May-11 07:30N 54°27' E 012°11'69 9.7
2018-May-11 00:22N 54°41' E 014°08'511.4
2018-May-10 23:57N 54°39' E 014°16'1511.0
2018-May-10 22:36N 54°39' E 014°42'311.0
2018-May-10 22:20N 54°39' E 014°47'410.9
2018-May-10 22:00N 54°40' E 014°53'711.0
2018-May-10 21:20N 54°41' E 015°05'4 8.7
2018-May-10 20:56N 54°42' E 015°11'0 0.4
2018-May-10 20:04N 54°43' E 015°11'0 2.0
2018-May-10 19:57N 54°43' E 015°11'4 7.7
2018-May-10 19:26N 54°43' E 015°18'9411.3
2018-May-10 11:08N 55°00' E 017°58'311.2
2018-May-10 10:51N 55°00' E 018°03'411.1
2018-May-10 10:30N 54°60' E 018°10'611.3
2018-May-10 10:01N 54°60' E 018°20'611.4
2018-May-10 09:30N 54°60' E 018°30'510.7
2018-May-10 09:00N 54°56' E 018°37'611.8
2018-May-10 08:30N 54°51' E 018°43'611.8
2018-May-10 08:00N 54°47' E 018°50'612.1
2018-May-10 07:30N 54°42' E 018°55'510.1
2018-May-10 07:00N 54°37' E 018°55'611.1
2018-May-10 06:30N 54°32' E 018°49'510.3
2018-May-10 06:00N 54°32' E 018°41'4 8.6
2018-May-10 05:30N 54°32' E 018°33'1 1.1
2018-May-10 05:00N 54°32' E 018°32'0 0.0
2018-May-10 04:30N 54°32' E 018°32'0 0.0
2018-May-10 03:58N 54°32' E 018°32'0 0.0
2018-May-10 03:28N 54°32' E 018°32'0 0.0
2018-May-10 02:58N 54°32' E 018°32'0 0.0
2018-May-10 02:28N 54°32' E 018°32'0 0.0
2018-May-10 01:58N 54°32' E 018°32'0 0.0
2018-May-10 01:28N 54°32' E 018°32'0 0.0
2018-May-10 00:58N 54°32' E 018°32'0 0.0
2018-May-10 00:28N 54°32' E 018°32'0 0.0
2018-May-09 23:58N 54°32' E 018°32'0 0.0
2018-May-09 23:28N 54°32' E 018°32'0 0.0
2018-May-09 22:58N 54°32' E 018°32'0 0.0
2018-May-09 22:28N 54°32' E 018°32'0 0.0
2018-May-09 21:58N 54°32' E 018°32'0 0.0
2018-May-09 21:28N 54°32' E 018°32'0 0.0
2018-May-09 20:58N 54°32' E 018°32'0 0.0
2018-May-09 20:28N 54°32' E 018°32'0 0.0
2018-May-09 19:58N 54°32' E 018°32'0 0.0
2018-May-09 19:28N 54°32' E 018°32'0 0.0
2018-May-09 18:58N 54°32' E 018°32'0 0.0
2018-May-09 18:28N 54°32' E 018°32'0 0.0
2018-May-09 17:58N 54°32' E 018°32'0 0.0
2018-May-09 17:28N 54°32' E 018°32'0 0.0
2018-May-09 16:58N 54°32' E 018°32'0 0.0
2018-May-09 16:28N 54°32' E 018°32'0 0.0
2018-May-09 15:58N 54°32' E 018°32'0 0.0
2018-May-09 15:28N 54°32' E 018°32'0 0.0
2018-May-09 14:58N 54°32' E 018°32'0 0.0
2018-May-09 14:28N 54°32' E 018°32'  

Dump ship's entire track history